Time;durP1;ratioP1;P1;durP2;ratioP2;P2;SDS_P1;SDS_P2;PMS_P1;PMS_P2;Temp;Humidity;BMP_temperature;BMP_pressure;BME280_temperature;BME280_humidity;BME280_pressure;Samples;Min_cycle;Max_cycle;Signal;HPM_P1;HPM_P2
2021/10/03 00:00:34;;;;;;;;;;;;;;;21.52;54.05;101488.84;2091749;28;925;-53
2021/10/03 00:01:34;;;;;;;;;;;;;;;21.75;52.33;101486.44;2091597;28;874;-53
2021/10/03 00:02:38;;;;;;;;;;;;;;;21.59;53.87;101493.16;2091415;28;1325;-53
2021/10/03 00:03:40;;;;;;;;;;;;;;;21.44;54.26;101495.34;2091544;28;968;-53
2021/10/03 00:04:41;;;;;;;;;;;;;;;21.48;53.03;101491.63;2091651;28;854;-53
2021/10/03 00:05:41;;;;;;;;;;;;;;;21.74;52.79;101499.97;2091300;28;787;-53
2021/10/03 00:06:43;;;;;;;;;;;;;;;21.55;54.29;101486.09;2091669;28;834;-53
2021/10/03 00:07:50;;;;;;;;;;;;;;;21.44;53.30;101489.06;2091633;28;989;-53
2021/10/03 00:08:52;;;;;;;;;;;;;;;21.54;53.99;101495.09;2091543;28;874;-53
2021/10/03 00:09:53;;;;;;;;;;;;;;;21.52;53.01;101494.25;2091607;28;855;-53
2021/10/03 00:10:54;;;;;;;;;;;;;;;21.72;52.42;101491.94;2091389;28;789;-53
2021/10/03 00:11:54;;;;;;;;;;;;;;;21.55;54.21;101499.56;2091484;28;1301;-53
2021/10/03 00:12:55;;;;;;;;;;;;;;;21.73;51.48;101493.69;2091503;28;1903;-53
2021/10/03 00:13:56;;;;;;;;;;;;;;;21.64;52.51;101491.25;2091605;28;803;-53
2021/10/03 00:14:56;;;;;;;;;;;;;;;21.65;53.70;101486.72;2091566;28;830;-53
2021/10/03 00:15:56;;;;;;;;;;;;;;;21.52;52.96;101488.84;2091473;28;1335;-53
2021/10/03 00:16:56;;;;;;;;;;;;;;;21.59;53.17;101485.94;2091591;28;811;-53
2021/10/03 00:17:57;;;;;;;;;;;;;;;21.58;53.17;101491.38;2091591;28;973;-53
2021/10/03 00:18:57;;;;;;;;;;;;;;;21.57;54.38;101492.31;2091171;28;1182;-53
2021/10/03 00:19:58;;;;;;;;;;;;;;;21.69;52.08;101486.63;2091581;28;1052;-53
2021/10/03 00:20:59;;;;;;;;;;;;;;;21.72;52.90;101481.16;2091410;28;1064;-53
2021/10/03 00:21:59;;;;;;;;;;;;;;;21.55;53.70;101478.00;2091501;28;1059;-53
2021/10/03 00:22:59;;;;;;;;;;;;;;;21.44;54.13;101486.38;2091501;28;752;-53
2021/10/03 00:23:59;;;;;;;;;;;;;;;21.52;53.45;101480.78;2091565;28;1021;-53
2021/10/03 00:25:00;;;;;;;;;;;;;;;21.46;53.46;101482.69;2091478;28;807;-53
2021/10/03 00:26:00;;;;;;;;;;;;;;;21.42;54.60;101483.72;2091545;28;981;-53
2021/10/03 00:27:00;;;;;;;;;;;;;;;21.54;54.07;101477.09;2091102;28;972;-54
2021/10/03 00:28:01;;;;;;;;;;;;;;;21.53;53.80;101487.94;2091490;28;755;-53
2021/10/03 00:29:02;;;;;;;;;;;;;;;21.70;52.27;101476.72;2091468;28;807;-53
2021/10/03 00:30:03;;;;;;;;;;;;;;;21.66;52.48;101481.31;2091500;28;985;-53
2021/10/03 00:31:03;;;;;;;;;;;;;;;21.55;53.23;101480.69;2091363;28;821;-54
2021/10/03 00:32:04;;;;;;;;;;;;;;;21.62;51.86;101480.50;2091363;28;1890;-53
2021/10/03 00:33:04;;;;;;;;;;;;;;;21.60;53.22;101478.75;2091476;28;1028;-53
2021/10/03 00:34:05;;;;;;;;;;;;;;;21.41;54.56;101471.16;2091555;28;997;-53
2021/10/03 00:35:05;;;;;;;;;;;;;;;21.51;53.12;101469.09;2091170;28;832;-53
2021/10/03 00:36:06;;;;;;;;;;;;;;;21.36;53.72;101470.41;2091449;28;953;-53
2021/10/03 00:37:06;;;;;;;;;;;;;;;21.41;53.97;101459.50;2091406;28;859;-53
2021/10/03 00:38:07;;;;;;;;;;;;;;;21.59;53.51;101460.81;2091439;28;1029;-53
2021/10/03 00:39:08;;;;;;;;;;;;;;;21.50;54.00;101466.44;2091420;28;905;-53
2021/10/03 00:40:08;;;;;;;;;;;;;;;21.38;53.24;101462.28;2091188;28;1020;-53
2021/10/03 00:41:09;;;;;;;;;;;;;;;21.45;53.19;101456.69;2091385;28;775;-53
2021/10/03 00:42:09;;;;;;;;;;;;;;;21.63;52.56;101457.13;2091580;28;1185;-53
2021/10/03 00:43:11;;;;;;;;;;;;;;;21.50;52.13;101455.66;2091333;28;783;-53
2021/10/03 00:44:11;;;;;;;;;;;;;;;21.58;53.13;101453.66;2086619;28;1181;-53
2021/10/03 00:45:12;;;;;;;;;;;;;;;21.57;53.64;101454.56;2083073;28;974;-53
2021/10/03 00:46:13;;;;;;;;;;;;;;;21.41;53.72;101452.28;2083229;28;899;-53
2021/10/03 00:47:13;;;;;;;;;;;;;;;21.58;52.06;101454.50;2083212;28;792;-53
2021/10/03 00:48:14;;;;;;;;;;;;;;;21.49;54.39;101446.69;2082875;28;897;-53
2021/10/03 00:49:14;;;;;;;;;;;;;;;21.47;53.37;101443.19;2083183;28;777;-53
2021/10/03 00:50:14;;;;;;;;;;;;;;;21.41;53.08;101438.81;2083170;28;962;-53
2021/10/03 00:51:15;;;;;;;;;;;;;;;21.42;53.43;101437.91;2083224;28;851;-53
2021/10/03 00:52:15;;;;;;;;;;;;;;;21.55;52.56;101443.81;2083095;28;1955;-53
2021/10/03 00:53:15;;;;;;;;;;;;;;;21.43;54.84;101441.50;2083149;28;973;-53
2021/10/03 00:54:16;;;;;;;;;;;;;;;21.29;54.94;101433.75;2083168;28;834;-53
2021/10/03 00:55:17;;;;;;;;;;;;;;;21.35;54.98;101430.91;2083137;28;981;-53
2021/10/03 00:56:18;;;;;;;;;;;;;;;21.48;52.58;101436.84;2083072;28;1244;-53
2021/10/03 00:57:18;;;;;;;;;;;;;;;21.41;53.72;101433.44;2083132;28;867;-53
2021/10/03 00:58:18;;;;;;;;;;;;;;;21.32;54.48;101425.59;2083168;28;801;-53
2021/10/03 00:59:18;;;;;;;;;;;;;;;21.25;53.58;101426.69;2082747;28;934;-53
2021/10/03 01:00:21;;;;;;;;;;;;;;;21.26;54.96;101423.06;2083156;28;664;-53
2021/10/03 01:01:22;;;;;;;;;;;;;;;21.46;53.42;101425.22;2083013;28;788;-54
2021/10/03 01:02:22;;;;;;;;;;;;;;;21.43;53.15;101430.72;2082998;28;851;-53
2021/10/03 01:03:22;;;;;;;;;;;;;;;21.42;53.52;101419.03;2083122;28;1071;-53
2021/10/03 01:04:22;;;;;;;;;;;;;;;21.47;54.12;101418.91;2083060;28;835;-53
2021/10/03 01:05:23;;;;;;;;;;;;;;;21.31;54.17;101415.72;2083114;28;974;-53
2021/10/03 01:06:23;;;;;;;;;;;;;;;21.52;53.59;101422.34;2083127;28;882;-53
2021/10/03 01:07:24;;;;;;;;;;;;;;;21.48;53.74;101412.59;2082867;28;874;-53
2021/10/03 01:08:24;;;;;;;;;;;;;;;21.40;52.52;101410.09;2083105;28;826;-53
2021/10/03 01:09:24;;;;;;;;;;;;;;;21.40;53.30;101403.84;2082855;28;823;-53
2021/10/03 01:10:25;;;;;;;;;;;;;;;21.43;52.70;101395.66;2083128;28;961;-54
2021/10/03 01:11:25;;;;;;;;;;;;;;;21.41;54.64;101403.78;2083006;28;1150;-53
2021/10/03 01:12:25;;;;;;;;;;;;;;;21.38;53.89;101398.47;2082550;28;1918;-53
2021/10/03 01:13:26;;;;;;;;;;;;;;;21.49;52.66;101398.16;2082971;28;985;-53
2021/10/03 01:14:26;;;;;;;;;;;;;;;21.42;53.93;101404.69;2083072;28;990;-53
2021/10/03 01:15:26;;;;;;;;;;;;;;;21.42;55.10;101399.28;2083054;28;1056;-53
2021/10/03 01:16:26;;;;;;;;;;;;;;;21.39;52.89;101402.06;2083127;28;771;-53
2021/10/03 01:17:27;;;;;;;;;;;;;;;21.50;53.52;101404.44;2082974;28;1036;-53
2021/10/03 01:18:27;;;;;;;;;;;;;;;21.58;53.58;101405.13;2082836;28;930;-53
2021/10/03 01:19:27;;;;;;;;;;;;;;;21.44;53.55;101398.31;2083053;28;830;-53
2021/10/03 01:20:28;;;;;;;;;;;;;;;21.41;54.18;101398.38;2083010;28;784;-53
2021/10/03 01:21:28;;;;;;;;;;;;;;;21.47;52.37;101384.75;2082954;28;1055;-53
2021/10/03 01:22:29;;;;;;;;;;;;;;;21.38;54.98;101392.22;2083728;28;1296;-53
2021/10/03 01:23:29;;;;;;;;;;;;;;;21.39;53.02;101386.78;2084600;28;1052;-54
2021/10/03 01:24:32;;;;;;;;;;;;;;;21.36;54.01;101386.84;2084615;28;981;-53
2021/10/03 01:25:34;;;;;;;;;;;;;;;21.30;53.99;101387.91;2084613;28;803;-53
2021/10/03 01:26:34;;;;;;;;;;;;;;;21.39;54.20;101383.22;2075855;28;1685;-53
2021/10/03 01:27:36;;;;;;;;;;;;;;;21.52;52.49;101376.50;2075927;28;932;-53
2021/10/03 01:28:36;;;;;;;;;;;;;;;21.44;53.19;101375.88;2084441;28;909;-53
2021/10/03 01:29:37;;;;;;;;;;;;;;;21.36;53.53;101381.47;2084564;28;994;-53
2021/10/03 01:30:38;;;;;;;;;;;;;;;21.36;53.40;101386.84;2084628;28;847;-53
2021/10/03 01:31:39;;;;;;;;;;;;;;;21.56;53.16;101383.59;2084257;28;949;-53
2021/10/03 01:32:39;;;;;;;;;;;;;;;21.39;52.89;101392.16;2084619;28;1965;-53
2021/10/03 01:33:39;;;;;;;;;;;;;;;21.46;53.41;101392.88;2084586;28;859;-53
2021/10/03 01:34:40;;;;;;;;;;;;;;;21.42;53.55;101392.06;2084300;28;792;-53
2021/10/03 01:35:40;;;;;;;;;;;;;;;21.45;53.18;101392.00;2084481;28;1025;-53
2021/10/03 01:36:40;;;;;;;;;;;;;;;21.40;53.74;101387.66;2084482;28;1049;-53
2021/10/03 01:37:40;;;;;;;;;;;;;;;21.33;54.38;101393.22;2084457;28;709;-53
2021/10/03 01:38:40;;;;;;;;;;;;;;;21.45;52.75;101397.38;2084519;28;862;-53
2021/10/03 01:39:41;;;;;;;;;;;;;;;21.44;53.83;101392.91;2084471;28;867;-53
2021/10/03 01:40:42;;;;;;;;;;;;;;;21.31;53.02;101395.09;2084584;28;768;-53
2021/10/03 01:41:42;;;;;;;;;;;;;;;21.41;53.29;101402.91;2084413;28;989;-53
2021/10/03 01:42:42;;;;;;;;;;;;;;;21.41;53.66;101405.59;2084320;28;823;-53
2021/10/03 01:43:43;;;;;;;;;;;;;;;21.48;52.92;101402.69;2084437;28;1440;-53
2021/10/03 01:44:43;;;;;;;;;;;;;;;21.37;53.24;101404.78;2084471;28;978;-53
2021/10/03 01:45:44;;;;;;;;;;;;;;;21.27;54.22;101403.28;2084460;28;1128;-53
2021/10/03 01:46:44;;;;;;;;;;;;;;;21.39;54.15;101407.47;2084525;28;1045;-53
2021/10/03 01:48:03;;;;;;;;;;;;;;;21.48;52.91;101407.22;2084493;28;851;-53
2021/10/03 01:49:03;;;;;;;;;;;;;;;21.48;54.08;101405.38;2084520;28;795;-53
2021/10/03 01:50:03;;;;;;;;;;;;;;;21.32;53.66;101412.13;2084135;28;864;-53
2021/10/03 01:51:05;;;;;;;;;;;;;;;21.46;52.86;101409.94;2084342;28;933;-53
2021/10/03 01:52:06;;;;;;;;;;;;;;;21.45;53.45;101408.16;2084382;28;1894;-53
2021/10/03 01:53:07;;;;;;;;;;;;;;;21.36;53.11;101408.41;2084448;28;1114;-53
2021/10/03 01:54:07;;;;;;;;;;;;;;;21.26;54.68;101407.78;2084398;28;810;-53
2021/10/03 01:55:07;;;;;;;;;;;;;;;21.37;53.75;101410.19;2084111;28;989;-53
2021/10/03 01:56:08;;;;;;;;;;;;;;;21.48;53.81;101410.78;2084134;28;973;-53
2021/10/03 01:57:09;;;;;;;;;;;;;;;21.32;54.53;101407.63;2084315;28;929;-53
2021/10/03 01:58:09;;;;;;;;;;;;;;;21.40;53.63;101409.22;2084373;28;859;-53
2021/10/03 01:59:10;;;;;;;;;;;;;;;21.39;53.55;101413.72;2084351;28;803;-53
2021/10/03 02:00:10;;;;;;;;;;;;;;;21.61;51.81;101402.34;2084345;28;973;-53
2021/10/03 02:01:12;;;;;;;;;;;;;;;21.54;52.75;101401.63;2084129;28;1160;-53
2021/10/03 02:02:12;;;;;;;;;;;;;;;21.39;54.06;101400.25;2084348;28;1227;-53
2021/10/03 02:03:13;;;;;;;;;;;;;;;21.43;54.30;101401.06;2084226;28;822;-53
2021/10/03 02:04:14;;;;;;;;;;;;;;;21.36;53.57;101402.16;2084307;28;795;-53
2021/10/03 02:05:14;;;;;;;;;;;;;;;21.39;53.91;101402.94;2084273;28;839;-53
2021/10/03 02:06:15;;;;;;;;;;;;;;;21.46;53.48;101406.38;2084202;28;985;-53
2021/10/03 02:07:17;;;;;;;;;;;;;;;21.42;54.20;101402.84;2084238;28;1052;-53
2021/10/03 02:08:18;;;;;;;;;;;;;;;21.52;52.84;101408.00;2084258;28;1064;-53
2021/10/03 02:09:21;;;;;;;;;;;;;;;21.46;54.15;101404.53;2084268;28;847;-53
2021/10/03 02:10:25;;;;;;;;;;;;;;;21.38;53.63;101409.25;2084325;28;823;-53
2021/10/03 02:11:27;;;;;;;;;;;;;;;21.45;53.69;101399.22;2084009;28;885;-53
2021/10/03 02:12:27;;;;;;;;;;;;;;;21.29;55.23;101394.25;2084068;28;1984;-53
2021/10/03 02:13:27;;;;;;;;;;;;;;;21.42;53.44;101394.78;2084299;28;893;-53
2021/10/03 02:14:30;;;;;;;;;;;;;;;21.38;53.59;101390.38;2075213;28;1587;-53
2021/10/03 02:15:31;;;;;;;;;;;;;;;21.41;52.13;101382.22;2075856;28;832;-53
2021/10/03 02:16:31;;;;;;;;;;;;;;;21.38;52.99;101390.38;2084267;28;751;-53
2021/10/03 02:17:31;;;;;;;;;;;;;;;21.20;54.60;101386.41;2075374;28;926;-53
2021/10/03 02:18:33;;;;;;;;;;;;;;;21.24;54.32;101388.09;2075481;28;977;-53
2021/10/03 02:19:33;;;;;;;;;;;;;;;21.43;52.99;101369.59;2084196;28;831;-53
2021/10/03 02:20:34;;;;;;;;;;;;;;;21.34;54.21;101372.53;2084239;28;898;-53
2021/10/03 02:21:35;;;;;;;;;;;;;;;21.26;53.41;101375.47;2084162;28;1102;-53
2021/10/03 02:22:35;;;;;;;;;;;;;;;21.30;54.41;101384.31;2084248;28;1036;-53
2021/10/03 02:23:35;;;;;;;;;;;;;;;21.39;54.28;101384.06;2084216;28;832;-53
2021/10/03 02:24:36;;;;;;;;;;;;;;;21.42;53.22;101389.38;2083982;28;776;-53
2021/10/03 02:25:43;;;;;;;;;;;;;;;21.36;54.12;101386.00;2083937;28;793;-53
2021/10/03 02:26:43;;;;;;;;;;;;;;;21.42;53.79;101375.91;2084225;28;897;-53
2021/10/03 02:27:44;;;;;;;;;;;;;;;21.50;53.52;101372.97;2084101;28;1257;-53
2021/10/03 02:28:44;;;;;;;;;;;;;;;21.48;52.21;101369.47;2084117;28;993;-53
2021/10/03 02:29:44;;;;;;;;;;;;;;;21.27;53.62;101360.16;2084072;28;855;-53
2021/10/03 02:30:46;;;;;;;;;;;;;;;21.43;53.04;101344.47;2084069;28;982;-53
2021/10/03 02:31:46;;;;;;;;;;;;;;;21.47;52.42;101340.75;2084132;28;997;-53
2021/10/03 02:32:47;;;;;;;;;;;;;;;21.46;53.60;101334.47;2083904;28;1886;-53
2021/10/03 02:33:48;;;;;;;;;;;;;;;21.48;53.47;101316.44;2083205;28;827;-53
2021/10/03 02:34:48;;;;;;;;;;;;;;;21.45;52.06;101311.13;2083722;28;847;-53
2021/10/03 02:35:49;;;;;;;;;;;;;;;21.42;53.04;101305.81;2084089;28;989;-53
2021/10/03 02:36:49;;;;;;;;;;;;;;;21.40;54.02;101313.06;2083745;28;922;-53
2021/10/03 02:37:49;;;;;;;;;;;;;;;21.32;54.79;101312.41;2084182;28;750;-53
2021/10/03 02:38:50;;;;;;;;;;;;;;;21.31;54.89;101313.34;2083940;28;1031;-53
2021/10/03 02:39:50;;;;;;;;;;;;;;;21.32;53.23;101309.72;2083734;28;1103;-53
2021/10/03 02:40:51;;;;;;;;;;;;;;;21.38;54.04;101309.53;2084024;28;1033;-53
2021/10/03 02:41:51;;;;;;;;;;;;;;;21.41;53.60;101308.59;2084085;28;862;-53
2021/10/03 02:42:51;;;;;;;;;;;;;;;21.45;53.74;101316.53;2083716;28;1020;-53
2021/10/03 02:43:53;;;;;;;;;;;;;;;21.51;53.10;101314.56;2083995;28;1471;-53
2021/10/03 02:44:53;;;;;;;;;;;;;;;21.41;53.37;101317.53;2084011;28;1037;-53
2021/10/03 02:45:54;;;;;;;;;;;;;;;21.33;53.99;101317.78;2084030;28;910;-53
2021/10/03 02:46:54;;;;;;;;;;;;;;;21.44;52.74;101319.28;2084012;28;957;-53
2021/10/03 02:47:55;;;;;;;;;;;;;;;21.43;53.62;101323.78;2083786;28;1004;-53
2021/10/03 02:48:55;;;;;;;;;;;;;;;21.47;53.09;101330.84;2084063;28;1168;-53
2021/10/03 02:49:55;;;;;;;;;;;;;;;21.48;52.57;101329.03;2084007;28;775;-53
2021/10/03 02:50:55;;;;;;;;;;;;;;;21.43;53.50;101325.59;2083984;28;1020;-53
2021/10/03 02:51:55;;;;;;;;;;;;;;;21.55;51.65;101325.19;2084071;28;1024;-53
2021/10/03 02:52:56;;;;;;;;;;;;;;;21.62;53.03;101320.56;2083867;28;1878;-53
2021/10/03 02:53:56;;;;;;;;;;;;;;;21.46;53.77;101322.81;2083962;28;855;-53
2021/10/03 02:54:57;;;;;;;;;;;;;;;21.50;52.61;101324.47;2083939;28;838;-53
2021/10/03 02:55:57;;;;;;;;;;;;;;;21.41;52.77;101325.63;2083747;28;981;-53
2021/10/03 02:56:57;;;;;;;;;;;;;;;21.46;53.26;101326.38;2083854;28;1234;-53
2021/10/03 02:57:57;;;;;;;;;;;;;;;21.59;52.41;101317.94;2083958;28;851;-53
2021/10/03 02:58:57;;;;;;;;;;;;;;;21.55;52.72;101321.66;2083847;28;846;-53
2021/10/03 02:59:58;;;;;;;;;;;;;;;21.36;52.87;101316.78;2083868;28;819;-53
2021/10/03 03:00:58;;;;;;;;;;;;;;;21.27;55.29;101326.03;2083832;28;977;-53
2021/10/03 03:01:58;;;;;;;;;;;;;;;21.36;53.35;101322.19;2083679;28;780;-53
2021/10/03 03:02:58;;;;;;;;;;;;;;;21.31;53.79;101322.31;2083826;28;775;-53
2021/10/03 03:03:58;;;;;;;;;;;;;;;21.23;54.10;101327.03;2083857;28;961;-53
2021/10/03 03:04:59;;;;;;;;;;;;;;;21.37;52.63;101334.72;2083771;28;1063;-53
2021/10/03 03:05:59;;;;;;;;;;;;;;;21.38;53.17;101335.63;2083895;28;949;-53
2021/10/03 03:06:59;;;;;;;;;;;;;;;21.31;54.03;101337.59;2083777;28;834;-53
2021/10/03 03:08:00;;;;;;;;;;;;;;;21.47;53.41;101329.97;2083815;28;1025;-54
2021/10/03 03:09:00;;;;;;;;;;;;;;;21.33;54.29;101322.25;2083849;28;784;-53
2021/10/03 03:10:00;;;;;;;;;;;;;;;21.42;53.48;101321.13;2083474;28;1356;-53
2021/10/03 03:11:01;;;;;;;;;;;;;;;21.41;53.13;101332.84;2083702;28;1215;-58
2021/10/03 03:12:01;;;;;;;;;;;;;;;21.41;53.29;101327.44;2083660;28;1115;-59
2021/10/03 03:13:02;;;;;;;;;;;;;;;21.37;53.61;101332.03;2083743;28;1918;-60
2021/10/03 03:14:02;;;;;;;;;;;;;;;21.44;54.31;101336.31;2083741;28;1362;-60
2021/10/03 03:15:07;;;;;;;;;;;;;;;21.41;53.54;101333.72;2083464;28;763;-59
2021/10/03 03:16:07;;;;;;;;;;;;;;;21.43;52.82;101331.84;2083824;28;1051;-59
2021/10/03 03:17:18;;;;;;;;;;;;;;;21.37;54.04;101332.03;2083745;28;1123;-59
2021/10/03 03:18:18;;;;;;;;;;;;;;;21.32;54.18;101339.34;2083812;28;1055;-59
2021/10/03 03:19:19;;;;;;;;;;;;;;;21.41;53.83;101332.84;2083698;28;667;-59
2021/10/03 03:20:19;;;;;;;;;;;;;;;21.47;53.23;101330.84;2083777;28;829;-59
2021/10/03 03:21:19;;;;;;;;;;;;;;;21.50;52.65;101331.69;2083679;28;1036;-59
2021/10/03 03:22:19;;;;;;;;;;;;;;;21.53;53.28;101328.88;2083703;28;993;-60
2021/10/03 03:23:20;;;;;;;;;;;;;;;21.45;52.66;101335.38;2074856;28;1033;-59
2021/10/03 03:24:20;;;;;;;;;;;;;;;21.48;53.44;101326.34;2075019;28;796;-60
2021/10/03 03:25:20;;;;;;;;;;;;;;;21.44;53.52;101330.94;2083578;28;898;-59
2021/10/03 03:26:20;;;;;;;;;;;;;;;21.58;51.81;101332.34;2083753;28;775;-59
2021/10/03 03:27:21;;;;;;;;;;;;;;;21.32;53.29;101348.34;2083650;28;803;-59
2021/10/03 03:28:21;;;;;;;;;;;;;;;21.30;54.16;101344.81;2083713;28;791;-59
2021/10/03 03:29:21;;;;;;;;;;;;;;;21.29;54.13;101347.53;2083564;28;767;-59
2021/10/03 03:30:21;;;;;;;;;;;;;;;21.33;54.22;101343.81;2083479;28;861;-60
2021/10/03 03:31:21;;;;;;;;;;;;;;;21.39;53.73;101340.09;2083485;28;913;-59
2021/10/03 03:32:22;;;;;;;;;;;;;;;21.28;55.21;101340.38;2083555;28;1953;-59
2021/10/03 03:33:22;;;;;;;;;;;;;;;21.34;54.13;101340.19;2083637;28;1001;-59
2021/10/03 03:34:22;;;;;;;;;;;;;;;21.17;55.24;101343.38;2083602;28;780;-59
2021/10/03 03:35:23;;;;;;;;;;;;;;;21.31;54.06;101342.97;2083557;28;1032;-59
2021/10/03 03:36:23;;;;;;;;;;;;;;;21.47;52.97;101340.75;2083563;28;804;-60
2021/10/03 03:37:23;;;;;;;;;;;;;;;21.20;55.15;101346.00;2083595;28;797;-59
2021/10/03 03:38:24;;;;;;;;;;;;;;;21.26;53.40;101340.44;2083486;28;783;-59
2021/10/03 03:39:24;;;;;;;;;;;;;;;21.31;54.51;101338.50;2083415;28;1258;-60
2021/10/03 03:40:24;;;;;;;;;;;;;;;;;;2083609;28;839;-59
2021/10/03 03:41:24;;;;;;;;;;;;;;;21.44;52.43;101336.31;2083598;28;1325;-59
2021/10/03 03:42:24;;;;;;;;;;;;;;;21.39;53.48;101332.88;2083527;28;906;-59
2021/10/03 03:43:24;;;;;;;;;;;;;;;21.33;54.19;101343.81;2083541;28;977;-59
2021/10/03 03:44:25;;;;;;;;;;;;;;;21.35;53.48;101341.97;2083352;28;1527;-60
2021/10/03 03:45:25;;;;;;;;;;;;;;;21.32;53.87;101344.75;2083234;28;779;-60
2021/10/03 03:46:25;;;;;;;;;;;;;;;21.46;53.26;101350.63;2083520;28;771;-59
2021/10/03 03:47:25;;;;;;;;;;;;;;;21.44;53.44;101351.63;2083411;28;977;-59
2021/10/03 03:48:25;;;;;;;;;;;;;;;21.31;53.76;101353.75;2083538;28;981;-59
2021/10/03 03:49:26;;;;;;;;;;;;;;;21.29;54.02;101370.00;2083338;28;756;-59
2021/10/03 03:50:26;;;;;;;;;;;;;;;21.29;53.97;101361.00;2083566;28;906;-60
2021/10/03 03:51:26;;;;;;;;;;;;;;;21.44;52.47;101360.56;2083373;28;981;-60
2021/10/03 03:52:26;;;;;;;;;;;;;;;21.39;53.20;101353.56;2083356;28;1955;-60
2021/10/03 03:53:27;;;;;;;;;;;;;;;21.30;54.07;101346.59;2083478;28;957;-60
2021/10/03 03:54:27;;;;;;;;;;;;;;;21.43;52.55;101339.06;2083481;28;851;-59
2021/10/03 03:55:27;;;;;;;;;;;;;;;21.41;53.54;101327.44;2083351;28;826;-59
2021/10/03 03:56:27;;;;;;;;;;;;;;;21.37;53.39;101334.72;2083416;28;1032;-60
2021/10/03 03:57:27;;;;;;;;;;;;;;;21.38;54.21;101327.53;2083473;28;898;-60
2021/10/03 03:58:28;;;;;;;;;;;;;;;21.32;54.26;101325.88;2083431;28;824;-59
2021/10/03 03:59:28;;;;;;;;;;;;;;;21.40;53.43;101325.69;2083390;28;1036;-60
2021/10/03 04:00:29;;;;;;;;;;;;;;;21.29;54.51;101326.88;2083307;28;871;-59
2021/10/03 04:01:29;;;;;;;;;;;;;;;21.33;53.89;101327.66;2083238;28;858;-60
2021/10/03 04:02:31;;;;;;;;;;;;;;;21.27;54.32;101326.03;2083449;28;909;-59
2021/10/03 04:03:31;;;;;;;;;;;;;;;21.70;53.05;101329.31;2083435;28;917;-59
2021/10/03 04:04:31;;;;;;;;;;;;;;;22.12;52.01;101336.06;2083308;28;906;-60
2021/10/03 04:05:32;;;;;;;;;;;;;;;22.32;51.22;101319.25;2083061;28;970;-60
2021/10/03 04:06:32;;;;;;;;;;;;;;;22.46;50.80;101320.63;2083515;28;827;-59
2021/10/03 04:07:32;;;;;;;;;;;;;;;22.67;49.56;101326.22;2083364;28;919;-59
2021/10/03 04:08:32;;;;;;;;;;;;;;;22.65;49.18;101318.19;2083380;28;811;-60
2021/10/03 04:09:32;;;;;;;;;;;;;;;22.65;50.10;101313.66;2083294;28;1249;-59
2021/10/03 04:10:32;;;;;;;;;;;;;;;22.72;50.32;101306.22;2083332;28;930;-59
2021/10/03 04:11:33;;;;;;;;;;;;;;;22.86;49.23;101299.44;2083197;28;985;-59
2021/10/03 04:12:33;;;;;;;;;;;;;;;22.95;49.13;101299.13;2083146;28;1922;-59
2021/10/03 04:13:33;;;;;;;;;;;;;;;22.94;48.84;101298.25;2083309;28;898;-60
2021/10/03 04:14:33;;;;;;;;;;;;;;;23.02;49.07;101288.97;2083282;28;799;-60
2021/10/03 04:15:33;;;;;;;;;;;;;;;23.11;48.34;101296.72;2083257;28;855;-61
2021/10/03 04:16:34;;;;;;;;;;;;;;;23.08;48.72;101299.53;2083128;28;1146;-60
2021/10/03 04:17:34;;;;;;;;;;;;;;;23.12;49.40;101297.63;2083077;28;780;-60
2021/10/03 04:18:34;;;;;;;;;;;;;;;23.13;49.33;101308.38;2083360;28;1000;-59
2021/10/03 04:19:34;;;;;;;;;;;;;;;23.25;48.13;101309.78;2083255;28;1047;-60
2021/10/03 04:20:34;;;;;;;;;;;;;;;23.29;48.36;101303.28;2083289;28;922;-60
2021/10/03 04:21:35;;;;;;;;;;;;;;;23.35;48.26;101304.91;2082770;28;1025;-60
2021/10/03 04:22:35;;;;;;;;;;;;;;;23.42;47.83;101294.72;2083243;28;867;-59
2021/10/03 04:23:35;;;;;;;;;;;;;;;23.46;48.29;101290.97;2083294;28;930;-59
2021/10/03 04:24:35;;;;;;;;;;;;;;;23.37;48.19;101287.66;2083354;28;862;-60
2021/10/03 04:25:35;;;;;;;;;;;;;;;23.42;47.85;101281.22;2083255;28;1056;-60
2021/10/03 04:26:36;;;;;;;;;;;;;;;23.47;47.85;101281.91;2083243;28;862;-62
2021/10/03 04:27:36;;;;;;;;;;;;;;;23.52;47.02;101288.03;2082962;28;869;-60
2021/10/03 04:28:36;;;;;;;;;;;;;;;23.54;48.12;101281.63;2083292;28;867;-59
2021/10/03 04:29:36;;;;;;;;;;;;;;;23.49;48.51;101297.16;2083218;28;989;-59
2021/10/03 04:30:36;;;;;;;;;;;;;;;23.52;48.42;101291.63;2083267;28;683;-59
2021/10/03 04:31:36;;;;;;;;;;;;;;;23.55;47.70;101296.03;2083247;28;855;-58
2021/10/03 04:32:36;;;;;;;;;;;;;;;23.61;47.38;101301.19;2082892;28;1889;-58
2021/10/03 04:33:41;;;;;;;;;;;;;;;23.61;47.73;101306.59;2083190;28;906;-58
2021/10/03 04:34:41;;;;;;;;;;;;;;;23.62;48.26;101307.47;2083284;28;955;-59
2021/10/03 04:35:41;;;;;;;;;;;;;;;23.63;48.56;101309.22;2083131;28;823;-58
2021/10/03 04:36:41;;;;;;;;;;;;;;;23.60;46.73;101314.75;2083242;28;863;-59
2021/10/03 04:37:42;;;;;;;;;;;;;;;23.70;47.93;101294.53;2083044;28;1009;-59
2021/10/03 04:38:42;;;;;;;;;;;;;;;23.67;46.72;101291.94;2083219;28;649;-59
2021/10/03 04:39:42;;;;;;;;;;;;;;;23.69;47.31;101296.38;2083091;28;799;-60
2021/10/03 04:40:42;;;;;;;;;;;;;;;23.66;46.75;101287.47;2083100;28;783;-60
2021/10/03 04:41:42;;;;;;;;;;;;;;;23.71;48.38;101285.47;2082895;28;926;-59
2021/10/03 04:42:45;;;;;;;;;;;;;;;23.70;48.27;101289.13;2083219;28;981;-59
2021/10/03 04:43:45;;;;;;;;;;;;;;;23.69;47.52;101285.56;2084112;28;1447;-60
2021/10/03 04:44:47;;;;;;;;;;;;;;;23.74;48.27;101285.34;2091326;28;1110;-60
2021/10/03 04:45:47;;;;;;;;;;;;;;;23.65;45.97;101292.03;2091395;28;1194;-59
2021/10/03 04:46:47;;;;;;;;;;;;;;;23.72;47.45;101286.38;2091139;28;858;-59
2021/10/03 04:47:47;;;;;;;;;;;;;;;23.71;48.68;101290.03;2091409;28;909;-60
2021/10/03 04:48:47;;;;;;;;;;;;;;;23.72;47.65;101289.94;2091355;28;965;-59
2021/10/03 04:49:49;;;;;;;;;;;;;;;23.73;47.99;101294.41;2091367;28;775;-60
2021/10/03 04:50:49;;;;;;;;;;;;;;;23.76;46.82;101288.88;2091324;28;882;-59
2021/10/03 04:51:49;;;;;;;;;;;;;;;23.74;47.94;101290.75;2091276;28;805;-59
2021/10/03 04:52:49;;;;;;;;;;;;;;;23.76;46.77;101285.31;2091216;28;1973;-60
2021/10/03 04:53:50;;;;;;;;;;;;;;;23.77;46.25;101281.66;2091367;28;830;-59
2021/10/03 04:54:50;;;;;;;;;;;;;;;23.78;47.10;101292.41;2091121;28;985;-59
2021/10/03 04:55:50;;;;;;;;;;;;;;;23.77;47.18;101293.34;2091378;28;977;-59
2021/10/03 04:56:50;;;;;;;;;;;;;;;23.80;47.69;101304.03;2091278;28;977;-59
2021/10/03 04:57:50;;;;;;;;;;;;;;;23.78;48.07;101305.94;2092699;28;901;-60
2021/10/03 04:58:50;;;;;;;;;;;;;;;23.76;48.04;101299.69;2092967;28;858;-60
2021/10/03 04:59:51;;;;;;;;;;;;;;;23.78;47.18;101294.25;2093012;28;779;-60
2021/10/03 05:00:51;;;;;;;;;;;;;;;23.81;45.65;101297.69;2092941;28;811;-60
2021/10/03 05:01:52;;;;;;;;;;;;;;;23.77;47.70;101290.66;2093078;28;822;-60
2021/10/03 05:02:53;;;;;;;;;;;;;;;23.81;46.58;101284.16;2089362;28;1306;-60
2021/10/03 05:03:53;;;;;;;;;;;;;;;23.83;46.29;101290.41;2084766;28;806;-60
2021/10/03 05:04:54;;;;;;;;;;;;;;;23.81;46.41;101292.28;2084705;28;1405;-59
2021/10/03 05:05:54;;;;;;;;;;;;;;;23.82;47.29;101285.94;2084782;28;802;-60
2021/10/03 05:06:54;;;;;;;;;;;;;;;23.79;46.78;101288.75;2084714;28;949;-59
2021/10/03 05:07:54;;;;;;;;;;;;;;;23.88;46.93;101294.75;2084831;28;1175;-60
2021/10/03 05:08:54;;;;;;;;;;;;;;;23.84;47.01;101286.75;2084363;28;1304;-60
2021/10/03 05:09:54;;;;;;;;;;;;;;;23.82;47.12;101288.63;2084753;28;826;-60
2021/10/03 05:10:55;;;;;;;;;;;;;;;23.84;47.17;101281.34;2084696;28;1195;-60
2021/10/03 05:11:55;;;;;;;;;;;;;;;23.87;47.41;101290.28;2084538;28;1243;-59
2021/10/03 05:12:55;;;;;;;;;;;;;;;23.86;46.80;101296.63;2084631;28;1980;-61
2021/10/03 05:13:55;;;;;;;;;;;;;;;23.88;47.08;101297.44;2084547;28;855;-59
2021/10/03 05:14:55;;;;;;;;;;;;;;;23.84;48.27;101294.88;2084626;28;846;-61
2021/10/03 05:15:56;;;;;;;;;;;;;;;23.88;47.32;101302.88;2084763;28;814;-60
2021/10/03 05:16:56;;;;;;;;;;;;;;;23.90;46.42;101291.03;2084502;28;890;-60
2021/10/03 05:17:56;;;;;;;;;;;;;;;23.88;47.70;101292.91;2084706;28;763;-60
2021/10/03 05:18:58;;;;;;;;;;;;;;;23.90;45.61;101298.28;2084648;28;796;-61